createdAt,value
2023-05-05T00:00:16.226Z,100906.44
2023-05-05T00:03:21.101Z,100915.06
2023-05-05T00:06:24.979Z,100905.09
2023-05-05T00:09:26.636Z,100913.25
2023-05-05T00:12:32.581Z,100905.34
2023-05-05T00:15:36.523Z,100921.09
2023-05-05T00:18:40.252Z,100915.84
2023-05-05T00:21:45.664Z,100916.00
2023-05-05T00:24:47.358Z,100920.66
2023-05-05T00:27:49.248Z,100913.81
2023-05-05T00:30:51.291Z,100904.53
2023-05-05T00:33:53.140Z,100903.69
2023-05-05T00:36:54.867Z,100900.47
2023-05-05T00:39:56.838Z,100903.09
2023-05-05T00:42:59.719Z,100904.28
2023-05-05T00:46:09.832Z,100905.66
2023-05-05T00:49:12.301Z,100903.62
2023-05-05T00:52:14.278Z,100899.91
2023-05-05T00:55:16.358Z,100901.66
2023-05-05T00:58:18.386Z,100889.72
2023-05-05T01:01:20.303Z,100902.56
2023-05-05T01:04:22.204Z,100896.81
2023-05-05T01:07:48.516Z,100900.53
2023-05-05T01:10:58.742Z,100896.16
2023-05-05T01:14:13.786Z,100892.91
2023-05-05T01:17:22.341Z,100897.56
2023-05-05T01:20:33.188Z,100892.22
2023-05-05T01:23:56.189Z,100884.59
2023-05-05T01:27:22.292Z,100887.56
2023-05-05T01:30:42.650Z,100885.59
2023-05-05T01:33:58.276Z,100885.72
2023-05-05T01:37:07.596Z,100884.78
2023-05-05T01:40:12.330Z,100883.38
2023-05-05T01:43:18.295Z,100875.09
2023-05-05T01:46:22.121Z,100873.31
2023-05-05T01:49:24.633Z,100866.03
2023-05-05T01:52:28.017Z,100874.16
2023-05-05T01:55:32.436Z,100866.75
2023-05-05T01:58:36.415Z,100879.34
2023-05-05T02:01:41.794Z,100875.09
2023-05-05T02:04:44.989Z,100871.19
2023-05-05T02:07:46.893Z,100870.81
2023-05-05T02:10:50.275Z,100871.94
2023-05-05T02:13:53.592Z,100873.19
2023-05-05T02:16:58.478Z,100865.97
2023-05-05T02:20:04.041Z,100867.78
2023-05-05T02:23:07.960Z,100865.09
2023-05-05T02:26:12.875Z,100863.81
2023-05-05T02:29:21.410Z,100855.69
2023-05-05T02:32:31.458Z,100860.87
2023-05-05T02:35:40.262Z,100857.97
2023-05-05T02:38:45.398Z,100857.75
2023-05-05T02:41:49.597Z,100857.00
2023-05-05T02:44:53.997Z,100851.44
2023-05-05T02:47:56.025Z,100851.75
2023-05-05T02:50:57.753Z,100860.87
2023-05-05T02:54:00.229Z,100853.13
2023-05-05T02:57:02.468Z,100858.97
2023-05-05T03:00:27.972Z,100863.38
2023-05-05T03:03:52.099Z,100864.22
2023-05-05T03:06:59.108Z,100869.53
2023-05-05T03:10:08.626Z,100871.13
2023-05-05T03:13:12.156Z,100869.03
2023-05-05T03:16:18.319Z,100878.25
2023-05-05T03:19:21.423Z,100874.22
2023-05-05T03:22:23.251Z,100878.59
2023-05-05T03:25:45.452Z,100875.81
2023-05-05T03:28:48.241Z,100883.53
2023-05-05T03:31:50.015Z,100880.00
2023-05-05T03:34:51.776Z,100877.84
2023-05-05T03:37:55.543Z,100876.50
2023-05-05T03:40:57.336Z,100881.94
2023-05-05T03:43:59.241Z,100881.75
2023-05-05T03:47:00.930Z,100888.28
2023-05-05T03:50:02.672Z,100896.62
2023-05-05T03:53:04.412Z,100899.56
2023-05-05T03:56:06.339Z,100900.88
2023-05-05T03:59:08.851Z,100900.00
2023-05-05T04:02:10.565Z,100898.09
2023-05-05T04:05:12.356Z,100906.47
2023-05-05T04:08:15.157Z,100902.09
2023-05-05T04:11:16.778Z,100904.53
2023-05-05T04:14:18.462Z,100911.25
2023-05-05T04:17:20.217Z,100909.72
2023-05-05T04:20:22.013Z,100915.31
2023-05-05T04:23:23.745Z,100915.63
2023-05-05T04:26:25.511Z,100920.28
2023-05-05T04:29:27.171Z,100921.75
2023-05-05T04:32:28.946Z,100923.25
2023-05-05T04:35:30.795Z,100933.06
2023-05-05T04:38:32.579Z,100935.37
2023-05-05T04:41:34.809Z,100934.50
2023-05-05T04:44:36.725Z,100934.44
2023-05-05T04:47:39.209Z,100936.62
2023-05-05T04:50:41.059Z,100936.91
2023-05-05T04:53:42.735Z,100937.22
2023-05-05T04:56:44.439Z,100940.81
2023-05-05T04:59:46.145Z,100942.91
2023-05-05T05:02:47.849Z,100953.72
2023-05-05T05:05:49.991Z,100951.06
2023-05-05T05:08:52.056Z,100948.38
2023-05-05T05:11:53.826Z,100946.34
2023-05-05T05:14:55.520Z,100940.06
2023-05-05T05:17:57.312Z,100951.22
2023-05-05T05:20:58.965Z,100944.41
2023-05-05T05:24:00.692Z,100951.47
2023-05-05T05:27:03.035Z,100951.03
2023-05-05T05:30:05.000Z,100954.25
2023-05-05T05:33:07.935Z,100952.78
2023-05-05T05:36:09.780Z,100956.94
2023-05-05T05:39:11.477Z,100959.59
2023-05-05T05:42:13.147Z,100963.66
2023-05-05T05:45:14.921Z,100958.50
2023-05-05T05:48:16.671Z,100967.25
2023-05-05T05:51:18.406Z,100970.25
2023-05-05T05:54:20.107Z,100970.19
2023-05-05T05:57:23.777Z,100975.25
2023-05-05T06:00:26.099Z,100979.06
2023-05-05T06:03:28.024Z,100978.03
2023-05-05T06:06:30.046Z,100981.03
2023-05-05T06:09:31.786Z,100979.09
2023-05-05T06:12:33.559Z,100989.44
2023-05-05T06:15:35.313Z,100989.78
2023-05-05T06:18:37.461Z,100981.63
2023-05-05T06:21:39.240Z,100984.41
2023-05-05T06:24:41.012Z,100979.13
2023-05-05T06:27:42.773Z,100978.47
2023-05-05T06:30:44.461Z,100981.28
2023-05-05T06:33:46.301Z,100973.59
2023-05-05T06:36:48.195Z,100980.19
2023-05-05T06:39:50.057Z,100973.97
2023-05-05T06:42:51.796Z,100972.41
2023-05-05T06:45:53.516Z,100971.94
2023-05-05T06:48:55.196Z,100973.38
2023-05-05T06:51:57.062Z,100985.06
2023-05-05T06:54:58.691Z,100982.03
2023-05-05T06:58:00.322Z,100984.38
2023-05-05T07:01:02.165Z,100975.72
2023-05-05T07:04:04.135Z,100962.44
2023-05-05T07:07:06.013Z,100973.63
2023-05-05T07:10:10.028Z,100977.72
2023-05-05T07:13:11.920Z,100972.37
2023-05-05T07:16:13.681Z,100971.84
2023-05-05T07:19:15.390Z,100975.72
2023-05-05T07:22:17.071Z,100978.28
2023-05-05T07:25:18.774Z,100983.72
2023-05-05T07:28:22.320Z,100969.06
2023-05-05T07:31:24.637Z,100977.16
2023-05-05T07:34:26.372Z,100982.97
2023-05-05T07:37:28.171Z,100975.41
2023-05-05T07:40:30.129Z,100975.69
2023-05-05T07:43:31.813Z,100980.13
2023-05-05T07:46:33.777Z,100975.69
2023-05-05T07:49:35.627Z,100972.00
2023-05-05T07:52:45.080Z,100972.84
2023-05-05T07:55:49.886Z,100976.94
2023-05-05T07:58:51.579Z,100974.28
2023-05-05T08:01:54.949Z,100964.59
2023-05-05T08:04:56.773Z,100968.38
2023-05-05T08:07:58.863Z,100977.00
2023-05-05T08:11:01.273Z,100970.72
2023-05-05T08:14:03.033Z,100970.00
2023-05-05T08:17:04.641Z,100973.84
2023-05-05T08:20:07.133Z,100967.78
2023-05-05T08:23:08.941Z,100966.97
2023-05-05T08:26:10.710Z,100965.22
2023-05-05T08:29:12.490Z,100969.78
2023-05-05T08:32:16.276Z,100968.00
2023-05-05T08:35:18.285Z,100964.06
2023-05-05T08:38:19.994Z,100965.69
2023-05-05T08:41:21.866Z,100970.94
2023-05-05T08:44:23.647Z,100957.38
2023-05-05T08:47:25.463Z,100973.22
2023-05-05T08:50:28.686Z,100972.59
2023-05-05T08:53:44.434Z,100983.97
2023-05-05T08:56:50.069Z,100976.69
2023-05-05T08:59:51.940Z,100977.97
2023-05-05T09:02:57.332Z,100973.97
2023-05-05T09:05:59.437Z,100963.75
2023-05-05T09:09:01.742Z,100957.12
2023-05-05T09:12:03.915Z,100971.25
2023-05-05T09:15:18.918Z,100973.66
2023-05-05T09:18:20.534Z,100956.34
2023-05-05T09:21:24.741Z,100971.09
2023-05-05T09:24:26.790Z,100968.06
2023-05-05T09:27:28.486Z,100954.22
2023-05-05T09:30:30.222Z,100949.72
2023-05-05T09:33:32.094Z,100947.94
2023-05-05T09:36:44.888Z,100954.22
2023-05-05T09:39:54.479Z,100943.00
2023-05-05T09:43:07.149Z,100953.56
2023-05-05T09:46:08.956Z,100944.47
2023-05-05T09:49:20.126Z,100934.44
2023-05-05T09:52:21.961Z,100931.41
2023-05-05T09:55:25.105Z,100932.59
2023-05-05T09:58:31.080Z,100924.72
2023-05-05T10:01:32.879Z,100921.63
2023-05-05T10:04:34.765Z,100924.00
2023-05-05T10:07:37.565Z,100914.22
2023-05-05T10:10:58.330Z,100906.78
2023-05-05T10:14:00.268Z,100903.91
2023-05-05T10:17:03.108Z,100906.62
2023-05-05T10:20:07.530Z,100897.87
2023-05-05T10:23:14.207Z,100896.56
2023-05-05T10:26:19.691Z,100893.44
2023-05-05T10:29:39.239Z,100881.75
2023-05-05T10:32:57.312Z,100889.16
2023-05-05T10:36:07.975Z,100881.88
2023-05-05T10:39:11.220Z,100877.25
2023-05-05T10:42:15.776Z,100873.59
2023-05-05T10:45:17.685Z,100863.41
2023-05-05T10:48:27.956Z,100869.84
2023-05-05T10:51:40.609Z,100868.56
2023-05-05T10:54:46.685Z,100854.25
2023-05-05T10:57:53.232Z,100847.53
2023-05-05T11:00:55.066Z,100852.59
2023-05-05T11:04:22.776Z,100842.81
2023-05-05T11:07:24.561Z,100842.34
2023-05-05T11:10:26.456Z,100836.84
2023-05-05T11:13:28.573Z,100838.16
2023-05-05T11:16:44.321Z,100832.69
2023-05-05T11:19:47.715Z,100832.31
2023-05-05T11:23:05.027Z,100828.69
2023-05-05T11:26:06.998Z,100825.75
2023-05-05T11:29:08.765Z,100827.16
2023-05-05T11:32:11.979Z,100820.25
2023-05-05T11:35:15.417Z,100823.59
2023-05-05T11:38:20.911Z,100824.16
2023-05-05T11:41:35.803Z,100819.87
2023-05-05T11:44:37.758Z,100815.88
2023-05-05T11:47:39.696Z,100813.53
2023-05-05T11:50:41.905Z,100813.75
2023-05-05T11:53:48.132Z,100802.00
2023-05-05T11:56:51.364Z,100801.94
2023-05-05T11:59:54.736Z,100798.00
2023-05-05T12:02:57.441Z,100802.91
2023-05-05T12:05:59.363Z,100796.63
2023-05-05T12:09:01.401Z,100789.63
2023-05-05T12:12:03.405Z,100787.97
2023-05-05T12:15:06.108Z,100786.75
2023-05-05T12:18:18.688Z,100785.59
2023-05-05T12:21:21.969Z,100793.72
2023-05-05T12:24:23.913Z,100783.13
2023-05-05T12:27:27.328Z,100780.63
2023-05-05T12:30:29.041Z,100771.50
2023-05-05T12:33:38.324Z,100774.84
2023-05-05T12:36:40.198Z,100775.72
2023-05-05T12:39:41.955Z,100772.84
2023-05-05T12:42:46.233Z,100771.84
2023-05-05T12:45:49.470Z,100771.47
2023-05-05T12:49:07.154Z,100771.91
2023-05-05T12:52:10.107Z,100763.47
2023-05-05T12:55:12.386Z,100755.31
2023-05-05T12:58:14.085Z,100753.03
2023-05-05T13:01:15.814Z,100752.22
2023-05-05T13:04:18.192Z,100746.63
2023-05-05T13:07:23.016Z,100740.62
2023-05-05T13:10:28.469Z,100735.41
2023-05-05T13:13:32.269Z,100735.94
2023-05-05T13:16:34.246Z,100720.34
2023-05-05T13:19:41.762Z,100717.12
2023-05-05T13:22:43.553Z,100709.97
2023-05-05T13:25:45.358Z,100704.97
2023-05-05T13:28:47.031Z,100709.44
2023-05-05T13:31:48.969Z,100702.06
2023-05-05T13:34:50.820Z,100710.28
2023-05-05T13:37:52.490Z,100696.69
2023-05-05T13:40:54.205Z,100693.94
2023-05-05T13:43:56.617Z,100686.31
2023-05-05T13:46:59.514Z,100688.53
2023-05-05T13:50:02.053Z,100685.94
2023-05-05T13:53:03.946Z,100683.84
2023-05-05T13:56:06.838Z,100676.31
2023-05-05T13:59:09.242Z,100678.03
2023-05-05T14:02:11.043Z,100669.78
2023-05-05T14:05:14.745Z,100674.44
2023-05-05T14:08:16.892Z,100669.78
2023-05-05T14:11:20.678Z,100668.41
2023-05-05T14:14:22.839Z,100662.81
2023-05-05T14:17:25.382Z,100661.97
2023-05-05T14:20:27.794Z,100663.41
2023-05-05T14:23:29.415Z,100663.47
2023-05-05T14:26:31.145Z,100664.66
2023-05-05T14:29:32.918Z,100656.09
2023-05-05T14:32:34.712Z,100652.12
2023-05-05T14:35:36.597Z,100653.09
2023-05-05T14:38:39.557Z,100649.19
2023-05-05T14:41:41.215Z,100653.59
2023-05-05T14:44:42.992Z,100653.97
2023-05-05T14:47:44.809Z,100645.69
2023-05-05T14:50:46.551Z,100651.22
2023-05-05T14:53:48.436Z,100641.22
2023-05-05T14:56:50.269Z,100650.25
2023-05-05T14:59:53.105Z,100649.75
2023-05-05T15:02:54.871Z,100644.37
2023-05-05T15:05:56.732Z,100637.91
2023-05-05T15:08:58.595Z,100648.19
2023-05-05T15:12:00.384Z,100640.53
2023-05-05T15:15:03.518Z,100635.25
2023-05-05T15:18:05.790Z,100646.91
2023-05-05T15:21:08.524Z,100640.97
2023-05-05T15:24:10.625Z,100647.31
2023-05-05T15:27:12.427Z,100645.94
2023-05-05T15:30:14.437Z,100643.06
2023-05-05T15:33:16.877Z,100640.00
2023-05-05T15:36:22.607Z,100637.41
2023-05-05T15:39:24.494Z,100642.41
2023-05-05T15:42:26.796Z,100638.97
2023-05-05T15:45:28.584Z,100638.09
2023-05-05T15:48:30.460Z,100629.38
2023-05-05T15:51:32.370Z,100635.50
2023-05-05T15:54:34.465Z,100631.59
2023-05-05T15:57:36.291Z,100616.63
2023-05-05T16:00:39.076Z,100617.41
2023-05-05T16:03:41.267Z,100621.22
2023-05-05T16:06:43.201Z,100621.94
2023-05-05T16:09:45.062Z,100625.47
2023-05-05T16:12:46.891Z,100619.59
2023-05-05T16:15:48.639Z,100623.97
2023-05-05T16:18:50.639Z,100618.03
2023-05-05T16:21:56.526Z,100613.50
2023-05-05T16:24:58.256Z,100612.78
2023-05-05T16:28:01.651Z,100613.03
2023-05-05T16:31:03.545Z,100620.22
2023-05-05T16:34:05.383Z,100612.38
2023-05-05T16:37:07.106Z,100607.97
2023-05-05T16:40:09.475Z,100605.34
2023-05-05T16:43:11.199Z,100616.81
2023-05-05T16:46:12.938Z,100606.87
2023-05-05T16:49:14.680Z,100608.72
2023-05-05T16:52:16.491Z,100604.44
2023-05-05T16:55:18.317Z,100602.78
2023-05-05T16:58:20.915Z,100612.56
2023-05-05T17:01:22.756Z,100609.22
2023-05-05T17:04:24.592Z,100616.37
2023-05-05T17:07:26.265Z,100608.50
2023-05-05T17:10:27.991Z,100605.00
2023-05-05T17:13:29.677Z,100606.75
2023-05-05T17:16:31.731Z,100607.69
2023-05-05T17:19:33.422Z,100612.91
2023-05-05T17:22:35.099Z,100616.37
2023-05-05T17:25:36.797Z,100616.41
2023-05-05T17:28:38.492Z,100616.44
2023-05-05T17:31:40.259Z,100615.81
2023-05-05T17:34:41.998Z,100614.03
2023-05-05T17:37:43.931Z,100611.50
2023-05-05T17:40:45.643Z,100609.75
2023-05-05T17:43:48.577Z,100615.06
2023-05-05T17:46:50.676Z,100617.72
2023-05-05T17:49:54.198Z,100620.37
2023-05-05T17:52:56.716Z,100623.87
2023-05-05T17:55:58.415Z,100620.34
2023-05-05T17:59:00.728Z,100624.75
2023-05-05T18:02:02.387Z,100625.66
2023-05-05T18:05:04.327Z,100624.78
2023-05-05T18:08:06.837Z,100631.81
2023-05-05T18:11:08.690Z,100623.91
2023-05-05T18:14:10.814Z,100627.41
2023-05-05T18:17:12.554Z,100631.78
2023-05-05T18:20:14.274Z,100628.19
2023-05-05T18:23:15.984Z,100628.19
2023-05-05T18:26:17.712Z,100636.06
2023-05-05T18:29:21.555Z,100639.56
2023-05-05T18:32:23.852Z,100642.06
2023-05-05T18:35:26.007Z,100643.84
2023-05-05T18:38:27.719Z,100645.59
2023-05-05T18:41:29.357Z,100635.91
2023-05-05T18:44:32.840Z,100645.50
2023-05-05T18:47:37.044Z,100641.00
2023-05-05T18:50:38.888Z,100650.59
2023-05-05T18:53:41.541Z,100650.34
2023-05-05T18:56:43.339Z,100648.66
2023-05-05T18:59:45.032Z,100655.62
2023-05-05T19:02:46.799Z,100663.53
2023-05-05T19:05:48.495Z,100657.31
2023-05-05T19:08:50.296Z,100666.00
2023-05-05T19:11:52.015Z,100664.22
2023-05-05T19:14:53.664Z,100661.53
2023-05-05T19:17:55.510Z,100655.13
2023-05-05T19:20:57.227Z,100667.34
2023-05-05T19:23:58.969Z,100666.50
2023-05-05T19:27:02.182Z,100666.38
2023-05-05T19:30:05.238Z,100667.16
2023-05-05T19:33:07.155Z,100659.91
2023-05-05T19:36:08.957Z,100659.94
2023-05-05T19:39:10.669Z,100653.72
2023-05-05T19:42:12.539Z,100657.19
2023-05-05T19:45:14.251Z,100644.88
2023-05-05T19:48:16.256Z,100650.00
2023-05-05T19:51:18.016Z,100649.97
2023-05-05T19:54:19.973Z,100648.03
2023-05-05T19:57:22.349Z,100641.06
2023-05-05T20:00:24.148Z,100640.00
2023-05-05T20:03:25.925Z,100644.25
2023-05-05T20:06:27.629Z,100645.91
2023-05-05T20:09:29.535Z,100646.63
2023-05-05T20:12:31.255Z,100644.75
2023-05-05T20:15:33.609Z,100639.50
2023-05-05T20:18:35.280Z,100645.56
2023-05-05T20:21:37.024Z,100640.63
2023-05-05T20:24:38.833Z,100645.94
2023-05-05T20:27:40.763Z,100641.41
2023-05-05T20:30:42.502Z,100640.72
2023-05-05T20:33:44.309Z,100641.53
2023-05-05T20:36:46.256Z,100631.84
2023-05-05T20:39:48.127Z,100639.88
2023-05-05T20:42:50.497Z,100639.88
2023-05-05T20:45:52.385Z,100637.47
2023-05-05T20:48:54.152Z,100636.31
2023-05-05T20:51:58.165Z,100628.34
2023-05-05T20:54:59.846Z,100638.75
2023-05-05T20:58:01.630Z,100637.66
2023-05-05T21:01:03.414Z,100630.37
2023-05-05T21:04:05.431Z,100632.31
2023-05-05T21:07:07.214Z,100632.31
2023-05-05T21:10:11.255Z,100636.69
2023-05-05T21:13:13.300Z,100630.06
2023-05-05T21:16:15.031Z,100631.75
2023-05-05T21:19:16.846Z,100642.12
2023-05-05T21:22:18.727Z,100631.00
2023-05-05T21:25:21.217Z,100636.41
2023-05-05T21:28:22.941Z,100637.72
2023-05-05T21:31:25.764Z,100629.31
2023-05-05T21:34:27.421Z,100635.28
2023-05-05T21:37:29.136Z,100632.41
2023-05-05T21:40:31.001Z,100633.28
2023-05-05T21:43:32.769Z,100634.41
2023-05-05T21:46:34.565Z,100630.28
2023-05-05T21:49:36.269Z,100639.41
2023-05-05T21:52:37.910Z,100626.87
2023-05-05T21:55:39.597Z,100618.72
2023-05-05T21:58:41.330Z,100616.28
2023-05-05T22:01:43.065Z,100611.06
2023-05-05T22:04:48.618Z,100622.44
2023-05-05T22:07:50.530Z,100618.91
2023-05-05T22:10:52.249Z,100611.22
2023-05-05T22:13:53.981Z,100612.59
2023-05-05T22:16:55.894Z,100601.56
2023-05-05T22:19:57.595Z,100607.91
2023-05-05T22:23:00.888Z,100609.13
2023-05-05T22:26:03.251Z,100598.00
2023-05-05T22:29:05.894Z,100600.66
2023-05-05T22:32:20.617Z,100601.62
2023-05-05T22:35:23.371Z,100597.88
2023-05-05T22:38:26.136Z,100607.81
2023-05-05T22:41:28.866Z,100605.19
2023-05-05T22:44:30.598Z,100611.84
2023-05-05T22:47:32.327Z,100618.50
2023-05-05T22:50:35.583Z,100613.75
2023-05-05T22:53:38.581Z,100611.75
2023-05-05T22:56:40.631Z,100611.13
2023-05-05T22:59:42.289Z,100606.81
2023-05-05T23:02:44.259Z,100616.87
2023-05-05T23:05:46.109Z,100612.53
2023-05-05T23:08:48.990Z,100610.00
2023-05-05T23:11:50.599Z,100606.91
2023-05-05T23:14:52.479Z,100606.13
2023-05-05T23:17:54.353Z,100608.00
2023-05-05T23:20:57.131Z,100613.31
2023-05-05T23:23:59.135Z,100610.88
2023-05-05T23:27:04.189Z,100610.75
2023-05-05T23:30:07.870Z,100611.03
2023-05-05T23:33:09.568Z,100611.41
2023-05-05T23:36:11.319Z,100615.22
2023-05-05T23:39:13.043Z,100607.81
2023-05-05T23:42:14.746Z,100607.47
2023-05-05T23:45:19.188Z,100597.03
2023-05-05T23:48:21.353Z,100597.59
2023-05-05T23:51:23.078Z,100596.13
2023-05-05T23:54:24.791Z,100594.13
2023-05-05T23:57:26.889Z,100597.47
